sensor_id;sensor_type;location;lat;lon;timestamp;pressure;altitude;pressure_sealevel;temperature
79089;BMP280;68489;50.286;9.452;2023-05-15T00:00:31;97071.56;;;8.69
79089;BMP280;68489;50.286;9.452;2023-05-15T00:02:56;97068.31;;;8.65
79089;BMP280;68489;50.286;9.452;2023-05-15T00:05:22;97066.41;;;8.65
79089;BMP280;68489;50.286;9.452;2023-05-15T00:07:47;97063.13;;;8.61
79089;BMP280;68489;50.286;9.452;2023-05-15T00:10:12;97064.69;;;8.59
79089;BMP280;68489;50.286;9.452;2023-05-15T00:12:37;97075.63;;;8.61
79089;BMP280;68489;50.286;9.452;2023-05-15T00:15:03;97073.09;;;8.57
79089;BMP280;68489;50.286;9.452;2023-05-15T00:17:28;97071.28;;;8.54
79089;BMP280;68489;50.286;9.452;2023-05-15T00:19:54;97059.09;;;8.57
79089;BMP280;68489;50.286;9.452;2023-05-15T00:22:22;97062.69;;;8.50
79089;BMP280;68489;50.286;9.452;2023-05-15T00:24:47;97060.16;;;8.47
79089;BMP280;68489;50.286;9.452;2023-05-15T00:27:12;97053.50;;;8.42
79089;BMP280;68489;50.286;9.452;2023-05-15T00:29:37;97050.06;;;8.41
79089;BMP280;68489;50.286;9.452;2023-05-15T00:32:03;97057.06;;;8.48
79089;BMP280;68489;50.286;9.452;2023-05-15T00:34:28;97049.13;;;8.48
79089;BMP280;68489;50.286;9.452;2023-05-15T00:36:53;97045.03;;;8.47
79089;BMP280;68489;50.286;9.452;2023-05-15T00:39:19;97042.38;;;8.47
79089;BMP280;68489;50.286;9.452;2023-05-15T00:41:46;97053.06;;;8.44
79089;BMP280;68489;50.286;9.452;2023-05-15T00:44:12;97049.03;;;8.39
79089;BMP280;68489;50.286;9.452;2023-05-15T00:46:38;97038.53;;;8.35
79089;BMP280;68489;50.286;9.452;2023-05-15T00:49:04;97045.41;;;8.33
79089;BMP280;68489;50.286;9.452;2023-05-15T00:51:30;97041.41;;;8.28
79089;BMP280;68489;50.286;9.452;2023-05-15T00:53:57;97044.69;;;8.20
79089;BMP280;68489;50.286;9.452;2023-05-15T00:56:23;97042.16;;;8.16
79089;BMP280;68489;50.286;9.452;2023-05-15T00:58:49;97043.63;;;8.17
79089;BMP280;68489;50.286;9.452;2023-05-15T01:01:15;97038.63;;;8.19
79089;BMP280;68489;50.286;9.452;2023-05-15T01:03:42;97033.75;;;8.18
79089;BMP280;68489;50.286;9.452;2023-05-15T01:06:07;97033.34;;;8.19
79089;BMP280;68489;50.286;9.452;2023-05-15T01:08:41;97038.22;;;8.21
79089;BMP280;68489;50.286;9.452;2023-05-15T01:11:07;97030.38;;;8.17
79089;BMP280;68489;50.286;9.452;2023-05-15T01:13:33;97030.69;;;8.19
79089;BMP280;68489;50.286;9.452;2023-05-15T01:15:58;97025.94;;;8.14
79089;BMP280;68489;50.286;9.452;2023-05-15T01:18:23;97028.59;;;8.14
79089;BMP280;68489;50.286;9.452;2023-05-15T01:32:18;97030.06;;;8.15
79089;BMP280;68489;50.286;9.452;2023-05-15T01:37:41;97031.25;;;8.14
79089;BMP280;68489;50.286;9.452;2023-05-15T01:40:07;97020.31;;;8.12
79089;BMP280;68489;50.286;9.452;2023-05-15T01:42:35;97018.81;;;8.11
79089;BMP280;68489;50.286;9.452;2023-05-15T01:45:09;97019.25;;;8.09
79089;BMP280;68489;50.286;9.452;2023-05-15T01:47:39;97020.84;;;8.07
79089;BMP280;68489;50.286;9.452;2023-05-15T01:50:06;97014.59;;;8.01
79089;BMP280;68489;50.286;9.452;2023-05-15T01:52:33;97015.75;;;8.00
79089;BMP280;68489;50.286;9.452;2023-05-15T01:55:01;97017.00;;;7.95
79089;BMP280;68489;50.286;9.452;2023-05-15T01:57:27;97020.09;;;7.94
79089;BMP280;68489;50.286;9.452;2023-05-15T01:59:54;97016.38;;;7.91
79089;BMP280;68489;50.286;9.452;2023-05-15T02:02:20;97015.22;;;7.92
79089;BMP280;68489;50.286;9.452;2023-05-15T02:04:48;97014.47;;;7.91
79089;BMP280;68489;50.286;9.452;2023-05-15T02:07:15;97016.81;;;7.89
79089;BMP280;68489;50.286;9.452;2023-05-15T02:09:41;97013.00;;;7.90
79089;BMP280;68489;50.286;9.452;2023-05-15T02:12:07;97011.50;;;7.89
79089;BMP280;68489;50.286;9.452;2023-05-15T02:14:33;97015.63;;;7.90
79089;BMP280;68489;50.286;9.452;2023-05-15T02:16:59;97011.09;;;7.91
79089;BMP280;68489;50.286;9.452;2023-05-15T02:19:24;97014.06;;;7.93
79089;BMP280;68489;50.286;9.452;2023-05-15T02:21:50;97008.63;;;7.97
79089;BMP280;68489;50.286;9.452;2023-05-15T02:24:15;97007.38;;;8.01
79089;BMP280;68489;50.286;9.452;2023-05-15T02:26:49;97001.03;;;7.99
79089;BMP280;68489;50.286;9.452;2023-05-15T02:29:21;97008.03;;;7.93
79089;BMP280;68489;50.286;9.452;2023-05-15T02:32:15;97002.41;;;7.90
79089;BMP280;68489;50.286;9.452;2023-05-15T02:37:24;97003.03;;;7.95
79089;BMP280;68489;50.286;9.452;2023-05-15T02:39:52;97004.41;;;7.99
79089;BMP280;68489;50.286;9.452;2023-05-15T02:42:19;96996.81;;;8.01
79089;BMP280;68489;50.286;9.452;2023-05-15T02:44:45;97011.63;;;7.99
79089;BMP280;68489;50.286;9.452;2023-05-15T02:47:11;97008.63;;;7.97
79089;BMP280;68489;50.286;9.452;2023-05-15T02:49:37;97004.50;;;7.96
79089;BMP280;68489;50.286;9.452;2023-05-15T02:52:03;97005.25;;;7.96
79089;BMP280;68489;50.286;9.452;2023-05-15T02:54:29;97000.41;;;7.95
79089;BMP280;68489;50.286;9.452;2023-05-15T02:56:54;96999.66;;;7.94
79089;BMP280;68489;50.286;9.452;2023-05-15T02:59:20;97000.09;;;7.93
79089;BMP280;68489;50.286;9.452;2023-05-15T03:01:46;96995.63;;;7.89
79089;BMP280;68489;50.286;9.452;2023-05-15T03:04:13;96995.09;;;7.95
79089;BMP280;68489;50.286;9.452;2023-05-15T03:06:38;97002.44;;;8.03
79089;BMP280;68489;50.286;9.452;2023-05-15T03:09:04;96997.44;;;8.05
79089;BMP280;68489;50.286;9.452;2023-05-15T03:11:29;96997.88;;;8.04
79089;BMP280;68489;50.286;9.452;2023-05-15T03:13:54;96995.63;;;8.02
79089;BMP280;68489;50.286;9.452;2023-05-15T03:16:19;96985.88;;;7.99
79089;BMP280;68489;50.286;9.452;2023-05-15T03:18:45;96986.31;;;7.98
79089;BMP280;68489;50.286;9.452;2023-05-15T03:21:10;96987.88;;;7.95
79089;BMP280;68489;50.286;9.452;2023-05-15T03:23:35;96985.97;;;7.96
79089;BMP280;68489;50.286;9.452;2023-05-15T03:26:01;96985.25;;;7.95
79089;BMP280;68489;50.286;9.452;2023-05-15T03:28:26;96983.78;;;7.94
79089;BMP280;68489;50.286;9.452;2023-05-15T03:30:52;96982.69;;;7.91
79089;BMP280;68489;50.286;9.452;2023-05-15T03:33:17;96987.25;;;7.91
79089;BMP280;68489;50.286;9.452;2023-05-15T03:35:43;96986.19;;;7.88
79089;BMP280;68489;50.286;9.452;2023-05-15T03:38:08;96983.97;;;7.87
79089;BMP280;68489;50.286;9.452;2023-05-15T03:40:34;96986.19;;;7.88
79089;BMP280;68489;50.286;9.452;2023-05-15T03:42:59;96982.81;;;7.88
79089;BMP280;68489;50.286;9.452;2023-05-15T03:45:24;96981.97;;;7.91
79089;BMP280;68489;50.286;9.452;2023-05-15T03:47:49;96977.31;;;7.95
79089;BMP280;68489;50.286;9.452;2023-05-15T03:50:15;96985.13;;;7.99
79089;BMP280;68489;50.286;9.452;2023-05-15T03:52:40;96981.66;;;8.02
79089;BMP280;68489;50.286;9.452;2023-05-15T03:55:06;96983.13;;;8.03
79089;BMP280;68489;50.286;9.452;2023-05-15T03:57:31;96985.38;;;8.04
79089;BMP280;68489;50.286;9.452;2023-05-15T03:59:57;96979.63;;;8.06
79089;BMP280;68489;50.286;9.452;2023-05-15T04:02:22;96981.13;;;8.07
79089;BMP280;68489;50.286;9.452;2023-05-15T04:04:47;96987.47;;;8.09
79089;BMP280;68489;50.286;9.452;2023-05-15T04:07:13;96987.03;;;8.11
79089;BMP280;68489;50.286;9.452;2023-05-15T04:09:38;96994.91;;;8.14
79089;BMP280;68489;50.286;9.452;2023-05-15T04:12:03;96982.72;;;8.17
79089;BMP280;68489;50.286;9.452;2023-05-15T04:14:29;96978.78;;;8.22
79089;BMP280;68489;50.286;9.452;2023-05-15T04:16:54;96978.69;;;8.25
79089;BMP280;68489;50.286;9.452;2023-05-15T04:19:19;96975.81;;;8.32
79089;BMP280;68489;50.286;9.452;2023-05-15T04:21:45;96981.63;;;8.40
79089;BMP280;68489;50.286;9.452;2023-05-15T04:24:10;96972.28;;;8.48
79089;BMP280;68489;50.286;9.452;2023-05-15T04:26:36;96976.50;;;8.58
79089;BMP280;68489;50.286;9.452;2023-05-15T04:29:01;96974.38;;;8.66
79089;BMP280;68489;50.286;9.452;2023-05-15T04:31:27;96974.78;;;8.77
79089;BMP280;68489;50.286;9.452;2023-05-15T04:33:52;96983.56;;;8.87
79089;BMP280;68489;50.286;9.452;2023-05-15T04:36:18;96975.78;;;8.93
79089;BMP280;68489;50.286;9.452;2023-05-15T04:38:43;96979.56;;;9.04
79089;BMP280;68489;50.286;9.452;2023-05-15T04:41:08;96978.03;;;9.16
79089;BMP280;68489;50.286;9.452;2023-05-15T04:43:33;96974.28;;;9.26
79089;BMP280;68489;50.286;9.452;2023-05-15T04:45:58;96985.09;;;9.41
79089;BMP280;68489;50.286;9.452;2023-05-15T04:48:24;96985.91;;;9.51
79089;BMP280;68489;50.286;9.452;2023-05-15T04:50:49;96984.34;;;9.62
79089;BMP280;68489;50.286;9.452;2023-05-15T04:53:15;96978.63;;;9.73
79089;BMP280;68489;50.286;9.452;2023-05-15T04:55:41;96976.78;;;9.83
79089;BMP280;68489;50.286;9.452;2023-05-15T04:58:06;96981.97;;;9.96
79089;BMP280;68489;50.286;9.452;2023-05-15T05:00:31;96984.25;;;10.06
79089;BMP280;68489;50.286;9.452;2023-05-15T05:02:56;96981.91;;;10.18
79089;BMP280;68489;50.286;9.452;2023-05-15T05:05:22;96985.34;;;10.27
79089;BMP280;68489;50.286;9.452;2023-05-15T05:07:47;96984.16;;;10.37
79089;BMP280;68489;50.286;9.452;2023-05-15T05:10:15;96983.75;;;10.48
79089;BMP280;68489;50.286;9.452;2023-05-15T05:12:40;96986.44;;;10.57
79089;BMP280;68489;50.286;9.452;2023-05-15T05:15:06;96993.38;;;10.73
79089;BMP280;68489;50.286;9.452;2023-05-15T05:17:32;96994.69;;;10.78
79089;BMP280;68489;50.286;9.452;2023-05-15T05:19:57;96993.41;;;10.82
79089;BMP280;68489;50.286;9.452;2023-05-15T05:22:22;96989.84;;;10.85
79089;BMP280;68489;50.286;9.452;2023-05-15T05:24:47;96995.00;;;10.98
79089;BMP280;68489;50.286;9.452;2023-05-15T05:27:13;96986.72;;;11.05
79089;BMP280;68489;50.286;9.452;2023-05-15T05:29:38;96984.94;;;11.02
79089;BMP280;68489;50.286;9.452;2023-05-15T05:32:05;96993.25;;;11.04
79089;BMP280;68489;50.286;9.452;2023-05-15T05:34:30;96991.16;;;11.08
79089;BMP280;68489;50.286;9.452;2023-05-15T05:36:56;96995.16;;;11.13
79089;BMP280;68489;50.286;9.452;2023-05-15T05:39:21;97000.88;;;11.21
79089;BMP280;68489;50.286;9.452;2023-05-15T05:41:46;97000.41;;;11.31
79089;BMP280;68489;50.286;9.452;2023-05-15T05:44:11;96995.41;;;11.33
79089;BMP280;68489;50.286;9.452;2023-05-15T05:46:37;96996.00;;;11.37
79089;BMP280;68489;50.286;9.452;2023-05-15T05:49:02;96993.47;;;11.43
79089;BMP280;68489;50.286;9.452;2023-05-15T05:51:27;96991.84;;;11.46
79089;BMP280;68489;50.286;9.452;2023-05-15T05:53:52;96998.03;;;11.52
79089;BMP280;68489;50.286;9.452;2023-05-15T05:56:18;96997.28;;;11.60
79089;BMP280;68489;50.286;9.452;2023-05-15T05:58:44;96999.88;;;11.70
79089;BMP280;68489;50.286;9.452;2023-05-15T06:01:09;97001.91;;;11.84
79089;BMP280;68489;50.286;9.452;2023-05-15T06:03:35;97001.19;;;11.83
79089;BMP280;68489;50.286;9.452;2023-05-15T06:06:00;97005.31;;;11.84
79089;BMP280;68489;50.286;9.452;2023-05-15T06:08:27;96999.22;;;11.84
79089;BMP280;68489;50.286;9.452;2023-05-15T06:10:53;97004.69;;;11.89
79089;BMP280;68489;50.286;9.452;2023-05-15T06:13:18;97008.69;;;11.94
79089;BMP280;68489;50.286;9.452;2023-05-15T06:15:43;97000.06;;;11.99
79089;BMP280;68489;50.286;9.452;2023-05-15T06:18:10;97012.59;;;12.08
79089;BMP280;68489;50.286;9.452;2023-05-15T06:20:35;97004.72;;;12.13
79089;BMP280;68489;50.286;9.452;2023-05-15T06:23:00;96993.75;;;12.21
79089;BMP280;68489;50.286;9.452;2023-05-15T06:25:26;97005.38;;;12.32
79089;BMP280;68489;50.286;9.452;2023-05-15T06:27:51;97000.16;;;12.38
79089;BMP280;68489;50.286;9.452;2023-05-15T06:30:16;96994.03;;;12.47
79089;BMP280;68489;50.286;9.452;2023-05-15T06:32:41;97003.28;;;12.60
79089;BMP280;68489;50.286;9.452;2023-05-15T06:35:08;96997.44;;;12.86
79089;BMP280;68489;50.286;9.452;2023-05-15T06:37:34;96995.88;;;12.94
79089;BMP280;68489;50.286;9.452;2023-05-15T06:40:00;97001.41;;;13.05
79089;BMP280;68489;50.286;9.452;2023-05-15T06:42:25;97004.81;;;13.06
79089;BMP280;68489;50.286;9.452;2023-05-15T06:44:51;97001.50;;;13.11
79089;BMP280;68489;50.286;9.452;2023-05-15T06:47:16;97006.00;;;13.20
79089;BMP280;68489;50.286;9.452;2023-05-15T06:49:41;97005.22;;;13.28
79089;BMP280;68489;50.286;9.452;2023-05-15T06:52:06;97007.59;;;13.41
79089;BMP280;68489;50.286;9.452;2023-05-15T06:54:32;97005.56;;;13.51
79089;BMP280;68489;50.286;9.452;2023-05-15T06:56:57;97006.56;;;13.68
79089;BMP280;68489;50.286;9.452;2023-05-15T06:59:22;97001.09;;;13.77
79089;BMP280;68489;50.286;9.452;2023-05-15T07:01:48;97000.50;;;13.88
79089;BMP280;68489;50.286;9.452;2023-05-15T07:04:13;96995.25;;;13.93
79089;BMP280;68489;50.286;9.452;2023-05-15T07:06:38;96999.50;;;14.00
79089;BMP280;68489;50.286;9.452;2023-05-15T07:09:03;96995.88;;;14.03
79089;BMP280;68489;50.286;9.452;2023-05-15T07:11:29;97001.00;;;14.07
79089;BMP280;68489;50.286;9.452;2023-05-15T07:13:54;96998.00;;;14.19
79089;BMP280;68489;50.286;9.452;2023-05-15T07:16:20;96992.81;;;14.31
79089;BMP280;68489;50.286;9.452;2023-05-15T07:18:45;96995.63;;;14.42
79089;BMP280;68489;50.286;9.452;2023-05-15T07:21:10;96998.66;;;14.55
79089;BMP280;68489;50.286;9.452;2023-05-15T07:23:36;96997.19;;;14.75
79089;BMP280;68489;50.286;9.452;2023-05-15T07:26:01;96995.34;;;14.86
79089;BMP280;68489;50.286;9.452;2023-05-15T07:28:26;96994.22;;;14.98
79089;BMP280;68489;50.286;9.452;2023-05-15T07:30:51;96992.59;;;15.07
79089;BMP280;68489;50.286;9.452;2023-05-15T07:33:17;96990.59;;;15.28
79089;BMP280;68489;50.286;9.452;2023-05-15T07:35:42;96991.41;;;15.39
79089;BMP280;68489;50.286;9.452;2023-05-15T07:38:07;96997.88;;;15.59
79089;BMP280;68489;50.286;9.452;2023-05-15T07:40:33;96993.81;;;15.69
79089;BMP280;68489;50.286;9.452;2023-05-15T07:42:58;96999.78;;;15.95
79089;BMP280;68489;50.286;9.452;2023-05-15T07:45:24;97002.28;;;16.04
79089;BMP280;68489;50.286;9.452;2023-05-15T07:47:49;96993.06;;;16.17
79089;BMP280;68489;50.286;9.452;2023-05-15T07:50:16;96991.41;;;16.30
79089;BMP280;68489;50.286;9.452;2023-05-15T07:52:41;96993.63;;;16.38
79089;BMP280;68489;50.286;9.452;2023-05-15T07:55:08;96989.69;;;16.27
79089;BMP280;68489;50.286;9.452;2023-05-15T07:57:33;96988.44;;;16.23
79089;BMP280;68489;50.286;9.452;2023-05-15T07:59:59;96987.00;;;16.33
79089;BMP280;68489;50.286;9.452;2023-05-15T08:02:24;96988.09;;;16.75
79089;BMP280;68489;50.286;9.452;2023-05-15T08:04:49;96992.28;;;16.98
79089;BMP280;68489;50.286;9.452;2023-05-15T08:07:14;96988.56;;;17.29
79089;BMP280;68489;50.286;9.452;2023-05-15T08:09:40;96978.25;;;17.61
79089;BMP280;68489;50.286;9.452;2023-05-15T08:12:19;96983.06;;;17.85
79089;BMP280;68489;50.286;9.452;2023-05-15T08:14:49;96974.53;;;17.87
79089;BMP280;68489;50.286;9.452;2023-05-15T08:17:15;96982.03;;;18.05
79089;BMP280;68489;50.286;9.452;2023-05-15T08:19:40;96981.72;;;18.20
79089;BMP280;68489;50.286;9.452;2023-05-15T08:22:06;96983.84;;;18.33
79089;BMP280;68489;50.286;9.452;2023-05-15T08:24:31;96981.09;;;18.44
79089;BMP280;68489;50.286;9.452;2023-05-15T08:26:56;96983.84;;;18.33
79089;BMP280;68489;50.286;9.452;2023-05-15T08:29:21;96979.47;;;18.30
79089;BMP280;68489;50.286;9.452;2023-05-15T08:31:47;96969.78;;;18.04
79089;BMP280;68489;50.286;9.452;2023-05-15T08:34:12;96984.94;;;18.54
79089;BMP280;68489;50.286;9.452;2023-05-15T08:36:37;96976.53;;;18.69
79089;BMP280;68489;50.286;9.452;2023-05-15T08:39:02;96982.69;;;18.94
79089;BMP280;68489;50.286;9.452;2023-05-15T08:41:31;96969.09;;;19.35
79089;BMP280;68489;50.286;9.452;2023-05-15T08:43:57;96981.47;;;19.49
79089;BMP280;68489;50.286;9.452;2023-05-15T08:46:25;96981.53;;;19.63
79089;BMP280;68489;50.286;9.452;2023-05-15T08:48:52;96982.25;;;19.69
79089;BMP280;68489;50.286;9.452;2023-05-15T08:51:19;96972.53;;;19.98
79089;BMP280;68489;50.286;9.452;2023-05-15T08:53:45;96973.94;;;20.04
79089;BMP280;68489;50.286;9.452;2023-05-15T08:56:10;96972.09;;;20.12
79089;BMP280;68489;50.286;9.452;2023-05-15T08:58:36;96975.31;;;20.11
79089;BMP280;68489;50.286;9.452;2023-05-15T09:01:02;96972.53;;;20.35
79089;BMP280;68489;50.286;9.452;2023-05-15T09:03:27;96973.69;;;20.72
79089;BMP280;68489;50.286;9.452;2023-05-15T09:05:53;96974.81;;;20.63
79089;BMP280;68489;50.286;9.452;2023-05-15T09:08:21;96964.34;;;20.73
79089;BMP280;68489;50.286;9.452;2023-05-15T09:10:47;96960.84;;;20.91
79089;BMP280;68489;50.286;9.452;2023-05-15T09:13:13;96966.97;;;20.92
79089;BMP280;68489;50.286;9.452;2023-05-15T09:15:39;96969.41;;;20.63
79089;BMP280;68489;50.286;9.452;2023-05-15T09:18:04;96956.50;;;20.05
79089;BMP280;68489;50.286;9.452;2023-05-15T09:20:35;96963.72;;;19.97
79089;BMP280;68489;50.286;9.452;2023-05-15T09:23:03;96965.31;;;20.06
79089;BMP280;68489;50.286;9.452;2023-05-15T09:25:36;96960.50;;;19.99
79089;BMP280;68489;50.286;9.452;2023-05-15T09:28:03;96965.56;;;20.59
79089;BMP280;68489;50.286;9.452;2023-05-15T09:30:28;96968.16;;;21.23
79089;BMP280;68489;50.286;9.452;2023-05-15T09:32:58;96967.09;;;21.79
79089;BMP280;68489;50.286;9.452;2023-05-15T09:35:37;96964.13;;;22.45
79089;BMP280;68489;50.286;9.452;2023-05-15T09:38:06;96965.88;;;23.13
79089;BMP280;68489;50.286;9.452;2023-05-15T09:40:32;96960.09;;;24.34
79089;BMP280;68489;50.286;9.452;2023-05-15T09:42:58;96970.09;;;25.33
79089;BMP280;68489;50.286;9.452;2023-05-15T09:45:23;96959.97;;;25.99
79089;BMP280;68489;50.286;9.452;2023-05-15T09:48:02;96963.00;;;27.04
79089;BMP280;68489;50.286;9.452;2023-05-15T09:50:36;96953.47;;;27.13
79089;BMP280;68489;50.286;9.452;2023-05-15T09:53:03;96955.22;;;27.72
79089;BMP280;68489;50.286;9.452;2023-05-15T09:55:31;96944.88;;;27.17
79089;BMP280;68489;50.286;9.452;2023-05-15T10:00:30;96954.28;;;26.29
79089;BMP280;68489;50.286;9.452;2023-05-15T10:03:03;96958.69;;;25.27
79089;BMP280;68489;50.286;9.452;2023-05-15T10:05:29;96953.22;;;24.33
79089;BMP280;68489;50.286;9.452;2023-05-15T10:07:56;96961.19;;;23.49
79089;BMP280;68489;50.286;9.452;2023-05-15T10:10:22;96963.13;;;23.05
79089;BMP280;68489;50.286;9.452;2023-05-15T10:12:49;96959.47;;;22.74
79089;BMP280;68489;50.286;9.452;2023-05-15T10:15:16;96967.94;;;22.71
79089;BMP280;68489;50.286;9.452;2023-05-15T10:17:42;96956.59;;;23.37
79089;BMP280;68489;50.286;9.452;2023-05-15T10:20:09;96954.06;;;23.39
79089;BMP280;68489;50.286;9.452;2023-05-15T10:22:36;96944.72;;;22.83
79089;BMP280;68489;50.286;9.452;2023-05-15T10:25:07;96954.66;;;22.18
79089;BMP280;68489;50.286;9.452;2023-05-15T10:27:34;96960.34;;;21.46
79089;BMP280;68489;50.286;9.452;2023-05-15T10:30:02;96963.06;;;20.93
79089;BMP280;68489;50.286;9.452;2023-05-15T10:32:28;96952.94;;;20.48
79089;BMP280;68489;50.286;9.452;2023-05-15T10:34:54;96947.97;;;20.20
79089;BMP280;68489;50.286;9.452;2023-05-15T10:37:21;96947.59;;;20.29
79089;BMP280;68489;50.286;9.452;2023-05-15T10:39:46;96949.34;;;20.27
79089;BMP280;68489;50.286;9.452;2023-05-15T10:42:12;96941.84;;;20.20
79089;BMP280;68489;50.286;9.452;2023-05-15T10:44:37;96940.31;;;20.05
79089;BMP280;68489;50.286;9.452;2023-05-15T10:47:03;96943.00;;;20.05
79089;BMP280;68489;50.286;9.452;2023-05-15T10:49:29;96936.16;;;20.04
79089;BMP280;68489;50.286;9.452;2023-05-15T10:51:54;96939.19;;;20.78
79089;BMP280;68489;50.286;9.452;2023-05-15T10:54:21;96938.53;;;23.03
79089;BMP280;68489;50.286;9.452;2023-05-15T10:56:46;96930.38;;;24.67
79089;BMP280;68489;50.286;9.452;2023-05-15T10:59:11;96932.78;;;25.18
79089;BMP280;68489;50.286;9.452;2023-05-15T11:01:38;96924.13;;;25.05
79089;BMP280;68489;50.286;9.452;2023-05-15T11:04:11;96916.44;;;24.55
79089;BMP280;68489;50.286;9.452;2023-05-15T11:06:41;96922.94;;;24.75
79089;BMP280;68489;50.286;9.452;2023-05-15T11:09:32;96911.56;;;24.46
79089;BMP280;68489;50.286;9.452;2023-05-15T11:11:59;96908.47;;;23.89
79089;BMP280;68489;50.286;9.452;2023-05-15T11:14:26;96910.72;;;23.46
79089;BMP280;68489;50.286;9.452;2023-05-15T11:27:19;96906.25;;;20.66
79089;BMP280;68489;50.286;9.452;2023-05-15T11:30:08;96904.09;;;20.33
79089;BMP280;68489;50.286;9.452;2023-05-15T11:35:12;96896.00;;;20.33
79089;BMP280;68489;50.286;9.452;2023-05-15T11:40:19;96906.78;;;20.91
79089;BMP280;68489;50.286;9.452;2023-05-15T11:43:18;96902.31;;;21.47
79089;BMP280;68489;50.286;9.452;2023-05-15T11:45:52;96896.06;;;21.86
79089;BMP280;68489;50.286;9.452;2023-05-15T11:48:21;96902.34;;;22.44
79089;BMP280;68489;50.286;9.452;2023-05-15T11:50:46;96898.56;;;22.47
79089;BMP280;68489;50.286;9.452;2023-05-15T11:53:12;96907.03;;;22.64
79089;BMP280;68489;50.286;9.452;2023-05-15T11:55:40;96898.66;;;22.54
79089;BMP280;68489;50.286;9.452;2023-05-15T11:58:11;96901.16;;;21.90
79089;BMP280;68489;50.286;9.452;2023-05-15T12:00:37;96910.50;;;21.55
79089;BMP280;68489;50.286;9.452;2023-05-15T12:03:03;96907.78;;;21.68
79089;BMP280;68489;50.286;9.452;2023-05-15T12:05:28;96907.72;;;21.34
79089;BMP280;68489;50.286;9.452;2023-05-15T12:07:54;96911.66;;;21.59
79089;BMP280;68489;50.286;9.452;2023-05-15T12:10:20;96906.16;;;21.38
79089;BMP280;68489;50.286;9.452;2023-05-15T12:12:45;96923.66;;;20.98
79089;BMP280;68489;50.286;9.452;2023-05-15T12:15:12;96923.81;;;21.66
79089;BMP280;68489;50.286;9.452;2023-05-15T12:17:38;96935.28;;;21.45
79089;BMP280;68489;50.286;9.452;2023-05-15T12:20:06;96925.75;;;20.27
79089;BMP280;68489;50.286;9.452;2023-05-15T12:22:39;96925.81;;;20.08
79089;BMP280;68489;50.286;9.452;2023-05-15T12:25:06;96929.38;;;20.49
79089;BMP280;68489;50.286;9.452;2023-05-15T12:27:34;96925.59;;;21.63
79089;BMP280;68489;50.286;9.452;2023-05-15T12:30:00;96914.78;;;22.18
79089;BMP280;68489;50.286;9.452;2023-05-15T12:32:26;96913.63;;;22.55
79089;BMP280;68489;50.286;9.452;2023-05-15T12:34:52;96922.38;;;24.61
79089;BMP280;68489;50.286;9.452;2023-05-15T12:37:18;96919.66;;;26.39
79089;BMP280;68489;50.286;9.452;2023-05-15T12:39:55;96914.22;;;27.08
79089;BMP280;68489;50.286;9.452;2023-05-15T12:42:22;96919.28;;;27.39
79089;BMP280;68489;50.286;9.452;2023-05-15T12:44:54;96913.84;;;28.89
79089;BMP280;68489;50.286;9.452;2023-05-15T12:47:25;96900.72;;;29.79
79089;BMP280;68489;50.286;9.452;2023-05-15T12:49:56;96902.56;;;30.29
79089;BMP280;68489;50.286;9.452;2023-05-15T12:52:22;96901.41;;;29.79
79089;BMP280;68489;50.286;9.452;2023-05-15T12:54:47;96902.81;;;29.28
79089;BMP280;68489;50.286;9.452;2023-05-15T12:57:12;96895.78;;;27.99
79089;BMP280;68489;50.286;9.452;2023-05-15T12:59:39;96902.84;;;26.50
79089;BMP280;68489;50.286;9.452;2023-05-15T13:02:11;96893.78;;;25.56
79089;BMP280;68489;50.286;9.452;2023-05-15T13:04:37;96894.41;;;24.99
79089;BMP280;68489;50.286;9.452;2023-05-15T13:07:03;96900.31;;;24.50
79089;BMP280;68489;50.286;9.452;2023-05-15T13:09:28;96888.09;;;23.44
79089;BMP280;68489;50.286;9.452;2023-05-15T13:11:54;96890.91;;;23.31
79089;BMP280;68489;50.286;9.452;2023-05-15T13:14:20;96888.13;;;22.79
79089;BMP280;68489;50.286;9.452;2023-05-15T13:16:46;96887.03;;;22.46
79089;BMP280;68489;50.286;9.452;2023-05-15T13:19:12;96894.56;;;22.97
79089;BMP280;68489;50.286;9.452;2023-05-15T13:21:37;96893.63;;;23.31
79089;BMP280;68489;50.286;9.452;2023-05-15T13:24:03;96888.72;;;23.80
79089;BMP280;68489;50.286;9.452;2023-05-15T13:26:28;96894.47;;;23.69
79089;BMP280;68489;50.286;9.452;2023-05-15T13:28:53;96891.41;;;23.73
79089;BMP280;68489;50.286;9.452;2023-05-15T13:31:19;96882.66;;;23.51
79089;BMP280;68489;50.286;9.452;2023-05-15T13:33:44;96887.19;;;23.57
79089;BMP280;68489;50.286;9.452;2023-05-15T13:36:10;96891.41;;;23.73
79089;BMP280;68489;50.286;9.452;2023-05-15T13:38:36;96886.19;;;24.51
79089;BMP280;68489;50.286;9.452;2023-05-15T13:41:02;96884.16;;;24.67
79089;BMP280;68489;50.286;9.452;2023-05-15T13:43:28;96873.03;;;25.28
79089;BMP280;68489;50.286;9.452;2023-05-15T13:45:53;96871.47;;;25.50
79089;BMP280;68489;50.286;9.452;2023-05-15T13:48:18;96878.84;;;26.14
79089;BMP280;68489;50.286;9.452;2023-05-15T13:50:43;96883.06;;;27.11
79089;BMP280;68489;50.286;9.452;2023-05-15T13:53:09;96877.00;;;28.52
79089;BMP280;68489;50.286;9.452;2023-05-15T13:55:36;96888.50;;;31.12
79089;BMP280;68489;50.286;9.452;2023-05-15T13:58:01;96887.50;;;32.51
79089;BMP280;68489;50.286;9.452;2023-05-15T14:00:26;96881.31;;;34.15
79089;BMP280;68489;50.286;9.452;2023-05-15T14:02:52;96870.00;;;34.70
79089;BMP280;68489;50.286;9.452;2023-05-15T14:05:17;96873.16;;;34.04
79089;BMP280;68489;50.286;9.452;2023-05-15T14:07:42;96877.47;;;32.31
79089;BMP280;68489;50.286;9.452;2023-05-15T14:10:08;96872.94;;;32.88
79089;BMP280;68489;50.286;9.452;2023-05-15T14:12:35;96884.59;;;31.99
79089;BMP280;68489;50.286;9.452;2023-05-15T14:15:01;96886.47;;;31.59
79089;BMP280;68489;50.286;9.452;2023-05-15T14:17:26;96880.31;;;31.96
79089;BMP280;68489;50.286;9.452;2023-05-15T14:19:52;96890.66;;;33.81
79089;BMP280;68489;50.286;9.452;2023-05-15T14:22:17;96883.34;;;33.72
79089;BMP280;68489;50.286;9.452;2023-05-15T14:24:42;96881.84;;;34.73
79089;BMP280;68489;50.286;9.452;2023-05-15T14:27:08;96873.63;;;32.75
79089;BMP280;68489;50.286;9.452;2023-05-15T14:29:34;96882.00;;;32.51
79089;BMP280;68489;50.286;9.452;2023-05-15T14:31:59;96885.16;;;31.60
79089;BMP280;68489;50.286;9.452;2023-05-15T14:34:24;96903.06;;;31.14
79089;BMP280;68489;50.286;9.452;2023-05-15T14:36:49;96898.22;;;30.68
79089;BMP280;68489;50.286;9.452;2023-05-15T14:39:15;96890.38;;;32.54
79089;BMP280;68489;50.286;9.452;2023-05-15T14:41:41;96884.78;;;31.66
79089;BMP280;68489;50.286;9.452;2023-05-15T14:44:07;96899.38;;;31.10